Time;durP1;ratioP1;P1;durP2;ratioP2;P2;SDS_P1;SDS_P2;PMS_P1;PMS_P2;Temp;Humidity;BMP_temperature;BMP_pressure;BME280_temperature;BME280_humidity;BME280_pressure;Samples;Min_cycle;Max_cycle;Signal;HPM_P1;HPM_P2
2022/07/13 00:00:54;;;;;;;2.63;1.75;;;;;;;11.35;100.00;99053.09;2531294;29;20052;-77
2022/07/13 00:02:10;;;;;;;2.40;1.65;;;;;;;11.36;100.00;99052.22;2532557;29;20056;-79
2022/07/13 00:03:25;;;;;;;3.85;1.60;;;;;;;11.33;100.00;99054.91;2532724;29;20103;-77
2022/07/13 00:04:41;;;;;;;3.83;1.90;;;;;;;11.27;100.00;99049.78;2531908;29;20464;-78
2022/07/13 00:05:56;;;;;;;3.25;1.80;;;;;;;11.26;100.00;99043.69;2532998;29;20140;-77
2022/07/13 00:07:12;;;;;;;5.45;2.30;;;;;;;11.25;100.00;99046.31;2532500;29;20063;-77
2022/07/13 00:08:28;;;;;;;2.33;1.48;;;;;;;11.25;100.00;99046.31;2534855;29;20059;-77
2022/07/13 00:09:44;;;;;;;2.17;1.50;;;;;;;11.24;100.00;99050.69;2535765;29;20063;-77
2022/07/13 00:11:00;;;;;;;2.28;1.60;;;;;;;11.24;100.00;99047.22;2534216;29;20500;-78
2022/07/13 00:12:15;;;;;;;2.42;1.70;;;;;;;11.26;100.00;99046.31;2533593;29;20060;-77
2022/07/13 00:13:31;;;;;;;4.20;1.67;;;;;;;11.28;100.00;99044.50;2535480;29;20056;-78
2022/07/13 00:14:46;;;;;;;2.90;1.80;;;;;;;11.28;100.00;99043.63;2533664;29;20048;-77
2022/07/13 00:16:02;;;;;;;3.95;2.33;;;;;;;11.28;100.00;99036.66;2534441;29;20087;-77
2022/07/13 00:17:18;;;;;;;2.90;1.80;;;;;;;11.27;100.00;99042.78;2523613;29;20060;-77
2022/07/13 00:18:34;;;;;;;2.13;1.50;;;;;;;11.26;100.00;99040.19;2526959;29;20085;-77
2022/07/13 00:19:49;;;;;;;2.55;1.50;;;;;;;11.20;100.00;99038.56;2534704;29;20127;-78
2022/07/13 00:21:05;;;;;;;2.58;1.50;;;;;;;11.15;100.00;99033.41;2534738;29;20052;-77
2022/07/13 00:22:21;;;;;;;2.10;1.70;;;;;;;11.13;100.00;99035.19;2534636;29;20052;-78
2022/07/13 00:23:36;;;;;;;3.17;1.70;;;;;;;11.12;100.00;99037.88;2533363;29;20052;-78
2022/07/13 00:24:52;;;;;;;3.65;1.58;;;;;;;11.04;100.00;99037.16;2534367;29;20070;-77
2022/07/13 00:26:09;;;;;;;3.10;1.70;;;;;;;11.01;100.00;99038.06;2535524;29;20503;-78
2022/07/13 00:27:24;;;;;;;2.17;1.80;;;;;;;10.94;100.00;99039.09;2533380;29;20104;-77
2022/07/13 00:28:40;;;;;;;4.25;1.67;;;;;;;10.88;100.00;99038.31;2534129;29;20171;-77
2022/07/13 00:29:55;;;;;;;4.15;1.70;;;;;;;10.86;100.00;99039.25;2533491;29;20049;-76
2022/07/13 00:31:11;;;;;;;2.05;1.70;;;;;;;10.82;100.00;99040.19;2525196;29;20975;-76
2022/07/13 00:32:26;;;;;;;4.45;1.77;;;;;;;10.87;100.00;99039.19;2528055;29;20107;-77
2022/07/13 00:33:42;;;;;;;2.17;1.77;;;;;;;10.83;100.00;99037.53;2533765;29;20059;-77
2022/07/13 00:34:57;;;;;;;2.70;2.13;;;;;;;10.82;100.00;99027.97;2535840;29;20056;-76
2022/07/13 00:36:13;;;;;;;1.88;1.60;;;;;;;10.77;100.00;99035.06;2533618;29;20052;-77
2022/07/13 00:37:29;;;;;;;2.00;1.60;;;;;;;10.78;100.00;99025.41;2535109;29;20491;-77
2022/07/13 00:38:44;;;;;;;3.58;2.00;;;;;;;10.79;100.00;99035.00;2535444;29;20051;-76
2022/07/13 00:40:00;;;;;;;2.58;1.90;;;;;;;10.77;100.00;99034.19;2533735;29;20052;-76
2022/07/13 00:41:15;;;;;;;4.05;2.05;;;;;;;10.68;100.00;99035.22;2535691;29;20064;-76
2022/07/13 00:42:31;;;;;;;2.17;1.83;;;;;;;10.72;100.00;99031.63;2533124;29;20064;-76
2022/07/13 00:43:47;;;;;;;3.83;1.75;;;;;;;10.73;100.00;99039.47;2533883;29;20048;-77
2022/07/13 00:45:02;;;;;;;2.60;1.80;;;;;;;10.73;100.00;99038.59;2534405;29;20602;-76
2022/07/13 00:46:19;;;;;;;5.18;1.80;;;;;;;10.72;100.00;99031.63;2534990;29;20050;-76
2022/07/13 00:47:34;;;;;;;2.65;1.80;;;;;;;10.76;100.00;99033.34;2533617;29;20131;-76
2022/07/13 00:48:50;;;;;;;2.17;1.65;;;;;;;10.75;100.00;99026.34;2523997;29;20053;-78
2022/07/13 00:50:07;;;;;;;2.20;1.60;;;;;;;10.78;100.00;99025.41;2526109;29;20061;-77
2022/07/13 00:51:22;;;;;;;2.85;1.60;;;;;;;10.77;100.00;99035.06;2534670;29;20148;-76
2022/07/13 00:52:39;;;;;;;1.63;1.52;;;;;;;10.78;100.00;99036.78;2533267;29;20052;-77
2022/07/13 00:53:54;;;;;;;2.20;1.70;;;;;;;10.82;100.00;99038.44;2532114;29;20103;-76
2022/07/13 00:55:10;;;;;;;2.80;1.73;;;;;;;10.84;100.00;99041.03;2534487;29;20529;-77
2022/07/13 00:56:27;;;;;;;3.38;2.00;;;;;;;10.75;100.00;99039.44;2533729;29;20103;-76
2022/07/13 00:57:43;;;;;;;2.80;1.80;;;;;;;10.72;100.00;99036.88;2532831;29;20052;-76
2022/07/13 00:58:59;;;;;;;3.33;2.00;;;;;;;10.71;100.00;99035.16;2533789;29;20063;-76
2022/07/13 01:00:15;;;;;;;1.85;1.67;;;;;;;10.72;100.00;99039.50;2533071;29;20071;-76
2022/07/13 01:01:30;;;;;;;2.42;1.90;;;;;;;10.71;100.00;99037.78;2533622;29;20052;-76
2022/07/13 01:02:46;;;;;;;2.13;1.70;;;;;;;10.70;100.00;99033.44;2533180;29;20056;-76
2022/07/13 01:04:02;;;;;;;2.72;1.92;;;;;;;10.71;100.00;99033.41;2534505;29;20057;-76
2022/07/13 01:05:18;;;;;;;3.47;1.80;;;;;;;10.73;100.00;99041.22;2522382;29;20094;-76
2022/07/13 01:06:33;;;;;;;3.42;1.77;;;;;;;10.82;100.00;99037.56;2526592;29;20061;-76
2022/07/13 01:07:49;;;;;;;1.92;1.70;;;;;;;10.80;100.00;99032.38;2534223;29;20071;-76
2022/07/13 01:09:05;;;;;;;1.73;1.60;;;;;;;10.76;100.00;99037.69;2535453;29;20555;-76
2022/07/13 01:10:21;;;;;;;2.03;1.65;;;;;;;10.69;100.00;99031.72;2532783;29;20045;-76
2022/07/13 01:11:39;;;;;;;3.85;1.80;;;;;;;10.65;100.00;99035.28;2533942;29;20063;-76
2022/07/13 01:12:55;;;;;;;2.75;1.73;;;;;;;10.62;100.00;99036.19;2523828;29;20484;-76
2022/07/13 01:14:11;;;;;;;4.28;2.25;;;;;;;10.57;100.00;99036.28;2529141;29;20377;-76
2022/07/13 01:15:27;;;;;;;2.55;1.80;;;;;;;10.48;100.00;99038.19;2534170;29;20052;-76
2022/07/13 01:16:43;;;;;;;5.63;1.98;;;;;;;10.47;100.00;99034.69;2532737;29;20537;-76
2022/07/13 01:18:01;;;;;;;6.13;1.90;;;;;;;10.45;100.00;99033.88;2534736;29;20048;-76
2022/07/13 01:19:17;;;;;;;3.08;1.80;;;;;;;10.46;100.00;99035.59;2531999;29;20500;-78
2022/07/13 01:20:33;;;;;;;3.00;2.17;;;;;;;10.42;100.00;99037.44;2534652;29;20050;-78
2022/07/13 01:21:58;;;;;;;3.83;2.00;;;;;;;10.39;100.00;99028.72;2534490;29;20064;-78
2022/07/13 01:23:17;;;;;;;4.25;1.98;;;;;;;10.36;100.00;99021.78;2533681;29;20109;-78
2022/07/13 01:24:33;;;;;;;3.33;2.00;;;;;;;10.35;100.00;99027.06;2533027;29;20048;-78
2022/07/13 01:25:48;;;;;;;3.85;2.13;;;;;;;10.34;100.00;99023.56;2534558;29;20136;-78
2022/07/13 01:27:04;;;;;;;3.22;1.98;;;;;;;10.34;100.00;99023.56;2533010;29;20063;-78
2022/07/13 01:28:20;;;;;;;3.05;1.60;;;;;;;10.29;100.00;99031.50;2534809;29;20079;-76
2022/07/13 01:29:35;;;;;;;5.45;1.90;;;;;;;10.27;100.00;99029.81;2534390;29;20393;-76
2022/07/13 01:30:51;;;;;;;2.58;1.80;;;;;;;10.25;100.00;99027.22;2532360;29;20128;-77
2022/07/13 01:32:07;;;;;;;2.67;1.98;;;;;;;10.27;100.00;99024.59;2533578;29;20550;-76
2022/07/13 01:33:22;;;;;;;3.00;2.40;;;;;;;10.25;100.00;99021.97;2533918;29;20045;-77
2022/07/13 01:34:38;;;;;;;2.85;1.67;;;;;;;10.27;100.00;99030.66;2533964;29;20130;-78
2022/07/13 01:35:55;;;;;;;3.92;1.73;;;;;;;10.30;100.00;99017.53;2534051;29;20057;-76
2022/07/13 01:37:11;;;;;;;1.83;1.70;;;;;;;10.30;100.00;99024.53;2533987;29;20405;-76
2022/07/13 01:38:27;;;;;;;2.88;1.90;;;;;;;10.30;100.00;99022.75;2534664;29;20050;-76
2022/07/13 01:39:42;;;;;;;2.03;1.60;;;;;;;10.31;100.00;99018.41;2533510;29;20084;-75
2022/07/13 01:40:58;;;;;;;2.42;2.03;;;;;;;10.27;100.00;99014.13;2533417;29;20059;-77
2022/07/13 01:42:13;;;;;;;4.18;2.00;;;;;;;10.24;100.00;99020.25;2532598;29;20064;-76
2022/07/13 01:43:29;;;;;;;4.15;2.00;;;;;;;10.21;100.00;99019.44;2531977;29;20063;-76
2022/07/13 01:44:45;;;;;;;2.55;2.00;;;;;;;10.20;100.00;99012.47;2533325;29;20049;-76
2022/07/13 01:46:03;;;;;;;3.20;1.70;;;;;;;10.19;100.00;99014.22;2534364;29;20083;-76
2022/07/13 01:47:18;;;;;;;2.75;1.92;;;;;;;10.20;100.00;99015.09;2531847;29;20113;-75
2022/07/13 01:48:34;;;;;;;2.83;1.83;;;;;;;10.16;100.00;99011.66;2532966;29;20056;-75
2022/07/13 01:49:50;;;;;;;2.47;1.73;;;;;;;10.16;100.00;99017.78;2534940;29;20048;-75
2022/07/13 01:51:05;;;;;;;2.60;1.80;;;;;;;10.15;100.00;99018.66;2535235;29;20044;-76
2022/07/13 01:52:21;;;;;;;2.65;1.75;;;;;;;10.12;100.00;99023.06;2533094;29;20052;-75
2022/07/13 01:53:36;;;;;;;3.10;1.80;;;;;;;10.03;100.00;99019.72;2533733;29;20488;-77
2022/07/13 01:54:52;;;;;;;5.72;1.80;;;;;;;10.04;100.00;99018.81;2533749;29;20059;-77
2022/07/13 01:56:07;;;;;;;2.20;2.00;;;;;;;10.04;100.00;99021.44;2533693;29;20053;-76
2022/07/13 01:57:23;;;;;;;3.72;1.98;;;;;;;10.04;100.00;99010.13;2534538;29;20093;-77
2022/07/13 01:58:39;;;;;;;2.15;1.67;;;;;;;10.04;100.00;99012.75;2534336;29;20650;-77
2022/07/13 02:00:00;;;;;;;3.42;2.20;;;;;;;10.06;100.00;99012.69;2522299;29;20124;-78
2022/07/13 02:01:15;;;;;;;3.08;2.17;;;;;;;10.12;100.00;99020.47;2528847;29;20243;-77
2022/07/13 02:02:31;;;;;;;2.45;2.10;;;;;;;10.12;100.00;99015.22;2532759;29;20067;-79
2022/07/13 02:03:46;;;;;;;2.67;2.13;;;;;;;10.15;100.00;99015.16;2532315;29;20669;-79
2022/07/13 02:05:03;;;;;;;2.08;1.80;;;;;;;10.15;100.00;99010.81;2534798;29;20056;-77
2022/07/13 02:06:19;;;;;;;4.55;2.08;;;;;;;10.16;100.00;99014.28;2532099;29;20052;-79
2022/07/13 02:07:34;;;;;;;17.10;2.70;;;;;;;10.13;100.00;99017.84;2533551;29;20503;-78
2022/07/13 02:08:50;;;;;;;3.60;2.00;;;;;;;10.09;100.00;99015.28;2533756;29;20048;-80
2022/07/13 02:10:07;;;;;;;4.47;2.35;;;;;;;10.05;100.00;99017.09;2532977;29;20070;-80
2022/07/13 02:11:23;;;;;;;2.55;1.90;;;;;;;10.02;100.00;99010.13;2534348;29;20616;-78
2022/07/13 02:12:39;;;;;;;3.25;1.80;;;;;;;9.96;100.00;99012.88;2533763;29;20044;-78
2022/07/13 02:13:55;;;;;;;5.35;1.67;;;;;;;9.94;100.00;99016.38;2533301;29;20582;-77
2022/07/13 02:15:11;;;;;;;2.10;1.88;;;;;;;9.94;100.00;99017.28;2532994;29;20057;-77
2022/07/13 02:16:26;;;;;;;2.50;2.08;;;;;;;9.95;100.00;99019.00;2532383;29;20052;-77
2022/07/13 02:17:42;;;;;;;3.90;2.10;;;;;;;9.95;100.00;99011.16;2532228;29;20052;-77
2022/07/13 02:18:58;;;;;;;1.88;1.60;;;;;;;9.95;100.00;99007.66;2533330;29;20052;-75
2022/07/13 02:20:13;;;;;;;4.43;2.00;;;;;;;9.93;100.00;99005.09;2533729;29;20055;-78
2022/07/13 02:21:29;;;;;;;1.75;1.65;;;;;;;9.95;100.00;99011.16;2533604;29;20490;-78
2022/07/13 02:22:45;;;;;;;2.03;1.83;;;;;;;9.92;100.00;99002.47;2532918;29;20072;-77
2022/07/13 02:24:01;;;;;;;3.95;1.98;;;;;;;9.95;100.00;99007.66;2532101;29;20494;-78
2022/07/13 02:25:16;;;;;;;3.85;2.13;;;;;;;9.89;100.00;99004.25;2532546;29;20086;-77
2022/07/13 02:26:32;;;;;;;2.10;1.90;;;;;;;9.91;100.00;99008.59;2534567;29;20052;-77
2022/07/13 02:27:47;;;;;;;2.30;2.10;;;;;;;9.91;100.00;99006.84;2533677;29;20056;-77
2022/07/13 02:29:04;;;;;;;3.17;2.15;;;;;;;9.90;100.00;99007.72;2533443;29;20491;-79
2022/07/13 02:30:20;;;;;;;2.25;2.00;;;;;;;9.84;100.00;99011.28;2532862;29;20063;-77
2022/07/13 02:31:35;;;;;;;3.88;2.30;;;;;;;9.86;100.00;99011.28;2531755;29;20253;-77
2022/07/13 02:32:51;;;;;;;2.55;2.13;;;;;;;9.83;100.00;99020.03;2533116;29;20574;-77
2022/07/13 02:34:07;;;;;;;2.53;2.17;;;;;;;9.93;100.00;99015.53;2534093;29;20466;-78
2022/07/13 02:35:23;;;;;;;3.95;2.28;;;;;;;9.94;100.00;99019.00;2531636;29;20620;-78
2022/07/13 02:36:38;;;;;;;2.50;2.30;;;;;;;9.91;100.00;99019.91;2533268;29;20139;-78
2022/07/13 02:37:55;;;;;;;4.25;2.33;;;;;;;9.88;100.00;99023.47;2534686;29;21062;-77
2022/07/13 02:39:10;;;;;;;4.97;2.30;;;;;;;9.86;100.00;99019.13;2533173;29;20056;-77
2022/07/13 02:40:26;;;;;;;2.42;2.13;;;;;;;9.85;100.00;99020.03;2532967;29;20059;-76
2022/07/13 02:41:41;;;;;;;4.20;2.20;;;;;;;9.85;100.00;99017.41;2533715;29;20059;-77
2022/07/13 02:42:57;;;;;;;3.55;1.83;;;;;;;9.86;100.00;99012.16;2532737;29;20135;-79
2022/07/13 02:44:13;;;;;;;2.80;2.10;;;;;;;9.86;100.00;99019.13;2533983;29;20060;-78
2022/07/13 02:45:28;;;;;;;4.28;2.10;;;;;;;9.85;100.00;99015.66;2532553;29;20044;-78
2022/07/13 02:46:44;;;;;;;2.50;2.13;;;;;;;9.82;100.00;99022.69;2533151;29;20055;-78
2022/07/13 02:47:59;;;;;;;2.78;2.30;;;;;;;9.77;100.00;99020.16;2524179;29;20053;-78
2022/07/13 02:49:15;;;;;;;4.60;2.20;;;;;;;9.70;100.00;99021.97;2525733;29;20052;-78
2022/07/13 02:50:31;;;;;;;2.45;2.10;;;;;;;9.67;100.00;99029.88;2531881;29;20052;-79
2022/07/13 02:51:46;;;;;;;4.32;2.00;;;;;;;9.65;100.00;99028.16;2531693;29;20183;-78
2022/07/13 02:53:02;;;;;;;3.83;1.98;;;;;;;9.63;100.00;99017.72;2532481;29;20056;-78
2022/07/13 02:54:18;;;;;;;4.15;2.20;;;;;;;9.63;100.00;99017.72;2532040;29;20053;-78
2022/07/13 02:55:33;;;;;;;3.33;2.33;;;;;;;9.65;100.00;99015.97;2534510;29;20135;-77
2022/07/13 02:56:49;;;;;;;3.15;2.28;;;;;;;9.66;100.00;99016.81;2531225;29;20052;-77
2022/07/13 02:58:04;;;;;;;2.45;2.10;;;;;;;9.65;100.00;99020.31;2532683;29;20083;-77
2022/07/13 02:59:20;;;;;;;2.78;2.00;;;;;;;9.60;100.00;99010.81;2533576;29;20048;-78
2022/07/13 03:00:36;;;;;;;2.78;2.35;;;;;;;9.64;100.00;99008.13;2533447;29;20059;-77
2022/07/13 03:01:52;;;;;;;2.65;2.17;;;;;;;9.62;100.00;99010.75;2532390;29;20056;-77
2022/07/13 03:03:07;;;;;;;2.53;2.10;;;;;;;9.66;100.00;99006.38;2534379;29;20278;-77
2022/07/13 03:04:23;;;;;;;3.53;2.20;;;;;;;9.66;100.00;99008.97;2531917;29;20079;-79
2022/07/13 03:05:38;;;;;;;3.20;2.33;;;;;;;9.69;100.00;98996.72;2533414;29;20047;-77
2022/07/13 03:06:54;;;;;;;4.30;2.53;;;;;;;9.78;100.00;98995.72;2531985;29;20049;-77
2022/07/13 03:08:10;;;;;;;3.08;2.53;;;;;;;9.80;100.00;98993.09;2531695;29;20120;-77
2022/07/13 03:09:25;;;;;;;4.93;2.35;;;;;;;9.83;100.00;98988.66;2533553;29;20059;-77
2022/07/13 03:10:41;;;;;;;4.07;2.60;;;;;;;9.92;100.00;98985.03;2533644;29;20087;-77
2022/07/13 03:11:56;;;;;;;4.10;2.70;;;;;;;9.94;100.00;98985.00;2532745;29;20525;-77
2022/07/13 03:13:12;;;;;;;3.80;2.65;;;;;;;10.00;100.00;98975.31;2532068;29;20131;-77
2022/07/13 03:14:28;;;;;;;3.20;2.58;;;;;;;10.00;100.00;98972.69;2532827;29;20063;-77
2022/07/13 03:15:43;;;;;;;3.58;2.92;;;;;;;10.04;100.00;98970.88;2531873;29;20052;-77
2022/07/13 03:16:59;;;;;;;5.28;2.55;;;;;;;10.06;100.00;98963.88;2529617;29;20056;-76
2022/07/13 03:18:14;;;;;;;3.42;2.92;;;;;;;10.15;100.00;98962.84;2524274;29;20055;-77
2022/07/13 03:19:30;;;;;;;3.40;2.63;;;;;;;10.15;100.00;98953.25;2523299;29;20049;-77
2022/07/13 03:20:46;;;;;;;4.22;2.72;;;;;;;10.20;100.00;98949.69;2522610;29;20048;-77
2022/07/13 03:22:03;;;;;;;3.00;2.70;;;;;;;10.19;100.00;98946.19;2523382;29;20049;-77
2022/07/13 03:23:19;;;;;;;5.65;2.75;;;;;;;10.25;100.00;98947.81;2523305;29;20111;-77
2022/07/13 03:24:35;;;;;;;4.50;2.97;;;;;;;10.31;100.00;98958.19;2522442;29;20068;-78
2022/07/13 03:25:51;;;;;;;6.13;2.80;;;;;;;10.36;100.00;98955.50;2522053;29;20730;-77
2022/07/13 03:27:06;;;;;;;3.25;2.83;;;;;;;10.42;100.00;98964.13;2523124;29;20107;-77
2022/07/13 03:28:22;;;;;;;5.25;2.97;;;;;;;10.47;100.00;98969.25;2523552;29;20067;-77
2022/07/13 03:29:38;;;;;;;3.55;2.88;;;;;;;10.54;100.00;98970.88;2521399;29;20049;-77
2022/07/13 03:30:56;;;;;;;4.85;3.40;;;;;;;10.64;100.00;98974.19;2521937;29;20089;-82
2022/07/13 03:32:11;;;;;;;4.63;2.65;;;;;;;10.72;100.00;98979.25;2522981;29;20140;-79
2022/07/13 03:33:27;;;;;;;4.57;2.60;;;;;;;10.73;100.00;98973.13;2521846;29;20587;-80
2022/07/13 03:34:43;;;;;;;3.20;2.65;;;;;;;10.75;100.00;98979.19;2523756;29;20052;-81
2022/07/13 03:35:58;;;;;;;5.07;2.70;;;;;;;10.77;100.00;98972.19;2523859;29;20076;-79
2022/07/13 03:37:14;;;;;;;3.95;2.40;;;;;;;10.78;100.00;98971.28;2521604;29;20053;-79
2022/07/13 03:38:31;;;;;;;3.55;2.75;;;;;;;10.84;100.00;98979.00;2523413;29;20049;-79
2022/07/13 03:39:46;;;;;;;3.83;2.80;;;;;;;10.90;100.00;98980.66;2523520;29;20104;-78
2022/07/13 03:41:03;;;;;;;2.47;2.28;;;;;;;10.95;100.00;98983.19;2522064;29;20180;-79
2022/07/13 03:42:19;;;;;;;3.08;2.47;;;;;;;11.04;100.00;98979.50;2524830;29;20049;-79
2022/07/13 03:43:34;;;;;;;3.00;2.58;;;;;;;10.99;100.00;98985.72;2523801;29;20080;-79
2022/07/13 03:44:50;;;;;;;2.95;2.67;;;;;;;11.02;100.00;98990.00;2523698;29;20408;-78
2022/07/13 03:46:05;;;;;;;3.60;2.70;;;;;;;11.11;100.00;98984.56;2525710;29;20052;-77
2022/07/13 03:47:21;;;;;;;4.10;2.58;;;;;;;11.15;100.00;98995.88;2525964;29;20053;-78
2022/07/13 03:48:36;;;;;;;2.38;2.17;;;;;;;11.15;100.00;98990.63;2522840;29;20079;-77
2022/07/13 03:49:52;;;;;;;3.50;2.40;;;;;;;11.08;100.00;98991.63;2525996;29;20061;-78
2022/07/13 03:51:08;;;;;;;4.03;2.70;;;;;;;11.01;100.00;98991.78;2525913;29;20060;-78
2022/07/13 03:52:23;;;;;;;2.90;2.50;;;;;;;10.98;100.00;98988.34;2525056;29;20060;-78
2022/07/13 03:53:39;;;;;;;5.82;2.47;;;;;;;10.97;100.00;98991.88;2526243;29;20059;-77
2022/07/13 03:54:54;;;;;;;3.00;2.70;;;;;;;10.97;100.00;98987.50;2525263;29;20060;-77
2022/07/13 03:56:10;;;;;;;3.60;2.63;;;;;;;11.00;100.00;98981.31;2526027;29;20103;-78
2022/07/13 03:57:25;;;;;;;3.70;2.78;;;;;;;11.03;100.00;98970.75;2526467;29;20048;-77
2022/07/13 03:58:41;;;;;;;3.47;2.70;;;;;;;11.06;100.00;98968.09;2524197;29;20080;-78
2022/07/13 03:59:57;;;;;;;2.60;2.38;;;;;;;11.09;100.00;98967.16;2514963;29;20061;-78
2022/07/13 04:01:12;;;;;;;3.38;2.70;;;;;;;11.10;100.00;98967.13;2509136;29;20053;-79
2022/07/13 04:02:28;;;;;;;4.47;2.58;;;;;;;11.10;100.00;98961.88;2518857;29;20063;-78
2022/07/13 04:03:43;;;;;;;3.33;2.88;;;;;;;11.12;100.00;98962.72;2524114;29;20195;-77
2022/07/13 04:04:59;;;;;;;3.25;2.60;;;;;;;11.13;100.00;98964.44;2524103;29;20971;-78
2022/07/13 04:06:16;;;;;;;3.80;2.78;;;;;;;11.16;100.00;98961.75;2524240;29;20570;-78
2022/07/13 04:07:32;;;;;;;3.72;2.85;;;;;;;11.21;100.00;98966.03;2524854;29;20642;-77
2022/07/13 04:08:47;;;;;;;3.05;2.70;;;;;;;11.32;100.00;98965.78;2524765;29;20192;-79
2022/07/13 04:10:03;;;;;;;4.15;3.30;;;;;;;11.33;100.00;98957.91;2523276;29;20064;-79
2022/07/13 04:11:19;;;;;;;3.88;3.00;;;;;;;11.39;100.00;98963.00;2525426;29;20127;-85
2022/07/13 04:12:34;;;;;;;4.32;3.00;;;;;;;11.43;100.00;98961.16;2523854;29;20059;-79
2022/07/13 04:13:50;;;;;;;3.55;2.80;;;;;;;11.51;100.00;98958.38;2523895;29;20057;-79
2022/07/13 04:15:06;;;;;;;3.70;3.10;;;;;;;11.53;100.00;98953.94;2524836;29;20049;-78
2022/07/13 04:16:21;;;;;;;4.03;3.40;;;;;;;11.56;100.00;98957.38;2525812;29;20135;-78
2022/07/13 04:17:38;;;;;;;5.03;3.47;;;;;;;11.62;100.00;98953.75;2532406;29;20068;-79
2022/07/13 04:18:54;;;;;;;4.22;3.47;;;;;;;11.64;100.00;98957.19;2536211;29;20112;-79
2022/07/13 04:20:11;;;;;;;3.85;3.08;;;;;;;11.68;100.00;98955.34;2534982;29;20053;-79
2022/07/13 04:21:27;;;;;;;5.60;3.53;;;;;;;11.71;100.00;98953.50;2533756;29;20056;-81
2022/07/13 04:22:42;;;;;;;3.35;3.05;;;;;;;11.73;100.00;98940.34;2534491;29;20052;-79
2022/07/13 04:23:58;;;;;;;5.22;3.33;;;;;;;11.78;100.00;98951.59;2533009;29;20087;-79
2022/07/13 04:25:13;;;;;;;3.83;3.03;;;;;;;11.83;100.00;98948.84;2534701;29;20423;-80
2022/07/13 04:26:29;;;;;;;6.18;2.83;;;;;;;11.91;100.00;98941.66;2535811;29;20048;-79
2022/07/13 04:27:45;;;;;;;3.42;3.08;;;;;;;11.94;100.00;98938.94;2533587;29;20048;-79
2022/07/13 04:29:01;;;;;;;3.90;2.88;;;;;;;11.95;100.00;98945.91;2523869;29;20108;-79
2022/07/13 04:30:16;;;;;;;5.00;3.20;;;;;;;11.96;100.00;98942.38;2529518;29;20095;-79
2022/07/13 04:31:32;;;;;;;3.38;3.08;;;;;;;11.99;100.00;98938.84;2533445;29;20175;-79
2022/07/13 04:32:47;;;;;;;3.60;3.20;;;;;;;12.02;100.00;98944.03;2534419;29;20522;-78
2022/07/13 04:34:03;;;;;;;5.75;3.08;;;;;;;12.08;100.00;98943.00;2533696;29;20060;-79
2022/07/13 04:35:18;;;;;;;5.75;3.33;;;;;;;12.12;100.00;98939.41;2533843;29;20175;-81
2022/07/13 04:36:34;;;;;;;4.00;3.22;;;;;;;12.14;100.00;98943.72;2526143;29;20052;-78
2022/07/13 04:37:49;;;;;;;3.70;3.30;;;;;;;12.17;100.00;98953.28;2530432;29;20052;-78
2022/07/13 04:39:05;;;;;;;3.80;3.10;;;;;;;12.22;100.00;98951.38;2533496;29;20048;-79
2022/07/13 04:40:21;;;;;;;3.53;3.03;;;;;;;12.31;100.00;98954.69;2533710;29;20052;-80
2022/07/13 04:41:37;;;;;;;5.07;3.45;;;;;;;12.32;100.00;98946.75;2533272;29;20056;-78
2022/07/13 04:42:53;;;;;;;4.05;2.60;;;;;;;12.34;100.00;98947.56;2528930;29;20634;-82
2022/07/13 04:44:09;;;;;;;4.40;3.30;;;;;;;12.38;100.00;98961.47;2529603;29;20156;-80
2022/07/13 04:45:24;;;;;;;4.75;3.35;;;;;;;12.52;100.00;98948.81;2534539;29;20055;-80
2022/07/13 04:46:40;;;;;;;3.30;2.80;;;;;;;12.64;100.00;98952.00;2535483;29;20890;-83
2022/07/13 04:47:55;;;;;;;3.30;3.00;;;;;;;12.78;100.00;98952.47;2534016;29;20060;-80
2022/07/13 04:49:11;;;;;;;3.08;2.78;;;;;;;12.82;100.00;98948.00;2534077;29;20135;-79
2022/07/13 04:50:27;;;;;;;3.72;2.70;;;;;;;12.88;100.00;98952.22;2533326;29;20431;-79
2022/07/13 04:51:42;;;;;;;4.28;3.00;;;;;;;12.90;100.00;98943.38;2534469;29;20503;-79
2022/07/13 04:52:58;;;;;;;4.57;3.10;;;;;;;12.95;100.00;98956.38;2532969;29;20049;-79
2022/07/13 04:54:20;;;;;;;4.20;2.90;;;;;;;13.02;100.00;98950.06;2535052;29;20090;-79
2022/07/13 04:55:39;;;;;;;2.88;2.60;;;;;;;12.99;100.00;98951.00;2535682;29;20052;-79
2022/07/13 04:56:55;;;;;;;5.80;3.00;;;;;;;12.93;100.00;98952.94;2533343;29;20096;-79
2022/07/13 04:58:10;;;;;;;3.75;2.65;;;;;;;12.87;100.00;98947.88;2535575;29;20048;-78
2022/07/13 04:59:26;;;;;;;6.50;3.00;;;;;;;12.84;100.00;98949.66;2533286;29;20060;-78
2022/07/13 05:00:41;;;;;;;3.33;2.75;;;;;;;12.80;100.00;98948.03;2532151;29;20060;-81
2022/07/13 05:01:57;;;;;;;4.32;3.20;;;;;;;12.82;100.00;98945.38;2532529;29;20068;-78
2022/07/13 05:03:13;;;;;;;3.75;2.78;;;;;;;12.82;100.00;98945.38;2534254;29;20044;-79
2022/07/13 05:04:28;;;;;;;4.15;3.05;;;;;;;12.81;100.00;98949.75;2533607;29;20097;-79
2022/07/13 05:05:45;;;;;;;3.00;2.70;;;;;;;12.82;100.00;98942.75;2533390;29;20049;-80
2022/07/13 05:07:01;;;;;;;3.58;3.08;;;;;;;12.85;100.00;98946.16;2533541;29;20079;-78
2022/07/13 05:08:16;;;;;;;4.13;2.90;;;;;;;12.89;100.00;98946.91;2533902;29;20631;-78
2022/07/13 05:09:32;;;;;;;3.55;2.60;;;;;;;12.94;100.00;98946.78;2533709;29;20127;-79
2022/07/13 05:10:48;;;;;;;4.07;3.03;;;;;;;12.98;100.00;98945.78;2533912;29;20044;-78
2022/07/13 05:12:04;;;;;;;3.10;2.80;;;;;;;12.99;100.00;98953.63;2533410;29;20505;-78
2022/07/13 05:13:19;;;;;;;3.20;2.90;;;;;;;13.04;100.00;98948.22;2535317;29;20131;-79
2022/07/13 05:14:35;;;;;;;2.95;2.72;;;;;;;13.10;100.00;98947.19;2532704;29;20138;-80
2022/07/13 05:15:50;;;;;;;3.65;2.60;;;;;;;13.11;100.00;98941.88;2533883;29;20154;-78
2022/07/13 05:17:06;;;;;;;3.80;3.00;;;;;;;13.20;100.00;98948.66;2533242;29;20155;-78
2022/07/13 05:18:22;;;;;;;7.00;3.00;;;;;;;13.28;100.00;98941.34;2534897;29;20058;-81
2022/07/13 05:19:37;;;;;;;3.65;3.35;;;;;;;13.41;100.00;98940.97;2535321;29;20066;-79
2022/07/13 05:20:53;;;;;;;3.97;3.17;;;;;;;13.44;100.00;98940.91;2534317;29;20056;-77
2022/07/13 05:22:08;;;;;;;3.92;2.88;;;;;;;13.56;100.00;98937.88;2533019;29;20148;-77
2022/07/13 05:23:24;;;;;;;4.50;3.08;;;;;;;13.64;100.00;98945.53;2534994;29;20052;-77
2022/07/13 05:24:43;;;;;;;4.50;3.63;;;;;;;13.83;100.00;98950.22;2527027;29;20511;-77
2022/07/13 05:25:59;;;;;;;3.67;2.83;;;;;;;13.97;100.00;98945.34;2530450;29;20163;-78
2022/07/13 05:27:14;;;;;;;6.22;3.15;;;;;;;14.05;100.00;98949.47;2533264;29;20048;-77
2022/07/13 05:28:31;;;;;;;3.50;2.97;;;;;;;14.16;100.00;98949.97;2532563;29;20048;-80
2022/07/13 05:29:47;;;;;;;3.47;2.58;;;;;;;14.16;100.00;98947.34;2532600;29;20060;-77
2022/07/13 05:31:02;;;;;;;5.28;2.80;;;;;;;14.15;100.00;98942.09;2533351;29;20107;-77
2022/07/13 05:32:18;;;;;;;4.00;3.10;;;;;;;14.17;100.00;98943.78;2533314;29;20079;-77
2022/07/13 05:33:33;;;;;;;3.38;2.60;;;;;;;14.17;100.00;98946.41;2534067;29;20063;-76
2022/07/13 05:34:49;;;;;;;6.10;3.08;;;;;;;14.31;100.00;98942.44;2534034;29;20068;-75
2022/07/13 05:36:05;;;;;;;3.30;3.00;;;;;;;14.33;99.58;98941.50;2534021;29;20068;-75
2022/07/13 05:37:22;;;;;;;4.75;3.25;;;;;;;14.39;100.00;98937.78;2532937;29;20184;-76
2022/07/13 05:38:37;;;;;;;7.93;3.28;;;;;;;14.38;100.00;98936.91;2534306;29;20437;-78
2022/07/13 05:39:53;;;;;;;4.07;3.25;;;;;;;14.39;100.00;98937.78;2535038;29;20071;-76
2022/07/13 05:41:08;;;;;;;5.38;2.65;;;;;;;14.50;100.00;98940.00;2533808;29;20120;-75
2022/07/13 05:42:25;;;;;;;4.47;2.90;;;;;;;14.53;99.79;98946.03;2534141;29;20465;-75
2022/07/13 05:43:41;;;;;;;3.72;2.85;;;;;;;14.58;99.04;98942.38;2533626;29;20048;-75
2022/07/13 05:44:57;;;;;;;3.17;2.58;;;;;;;14.55;99.71;98935.44;2533152;29;20674;-75
2022/07/13 05:46:13;;;;;;;4.93;2.70;;;;;;;14.58;100.00;98943.22;2535264;29;20044;-77
2022/07/13 05:47:28;;;;;;;7.03;3.40;;;;;;;14.46;100.00;98939.25;2532223;29;20106;-76
2022/07/13 05:48:44;;;;;;;9.68;3.83;;;;;;;14.43;100.00;98934.09;2534802;29;20075;-76
2022/07/13 05:49:59;;;;;;;4.47;2.90;;;;;;;14.45;100.00;98934.91;2534815;29;20091;-76
2022/07/13 05:51:15;;;;;;;4.10;2.90;;;;;;;14.50;100.00;98937.38;2532978;29;20052;-76
2022/07/13 05:52:30;;;;;;;4.20;3.10;;;;;;;14.52;100.00;98932.91;2534940;29;20060;-76
2022/07/13 05:53:46;;;;;;;4.82;3.03;;;;;;;14.55;100.00;98938.94;2534869;29;20459;-77